Terminal Aerodrome Forecast
Issued by NWS North Platte, NE

Home | Current Version | Previous Version | Text Only | Print | Product List | Glossary On
Versions: 1 2 3 4 5 6 7 8 9 10 11 12 13 14 15 16
000
FTUS43 KLBF 271459 AAA
TAFVTN
TAF AMD
KVTN 271459Z 2715/2812 32005KT P6SM VCSH OVC050
      TEMPO 2715/2717 3SM -SHRA OVC030
     FM271700 35008KT P6SM BKN040
     FM280000 29007KT P6SM SCT150=

USA.gov is the U.S. government's official web portal to all federal, state and local government web resources and services.